Time;durP1;ratioP1;P1;durP2;ratioP2;P2;SDS_P1;SDS_P2;PMS_P1;PMS_P2;Temp;Humidity;BMP_temperature;BMP_pressure;BME280_temperature;BME280_humidity;BME280_pressure;Samples;Min_cycle;Max_cycle;Signal;HPM_P1;HPM_P2
2023/08/01 00:01:31;;;;;;;11.05;4.97;;;17.10;99.90;;;;;;5053240;28;20041;-59
2023/08/01 00:03:56;;;;;;;7.45;4.18;;;17.10;99.90;;;;;;5053730;28;20053;-59
2023/08/01 00:06:24;;;;;;;8.93;4.43;;;17.00;99.90;;;;;;5041977;28;20139;-59
2023/08/01 00:08:50;;;;;;;11.85;4.50;;;17.00;99.90;;;;;;5039035;28;20048;-60
2023/08/01 00:11:16;;;;;;;10.18;4.95;;;17.00;99.90;;;;;;5038509;28;20049;-59
2023/08/01 00:13:43;;;;;;;12.77;4.75;;;17.00;99.90;;;;;;5054103;28;20051;-60
2023/08/01 00:16:09;;;;;;;11.73;4.50;;;17.00;99.90;;;;;;5036934;28;20641;-60
2023/08/01 00:18:35;;;;;;;8.85;4.47;;;17.00;99.90;;;;;;5048357;28;20411;-61
2023/08/01 00:21:01;;;;;;;9.00;5.18;;;17.00;99.90;;;;;;5048993;28;20029;-60
2023/08/01 00:23:27;;;;;;;11.13;4.57;;;17.00;99.90;;;;;;5046483;28;20095;-58
2023/08/01 00:26:17;;;;;;;8.48;4.20;;;17.00;99.90;;;;;;5033354;28;20120;-58
2023/08/01 00:28:43;;;;;;;9.55;5.18;;;17.00;99.90;;;;;;5055970;28;20447;-59
2023/08/01 00:31:09;;;;;;;10.55;4.68;;;16.90;99.90;;;;;;5027642;28;20043;-57
2023/08/01 00:33:35;;;;;;;9.25;4.30;;;16.90;99.90;;;;;;5056140;28;20025;-60
2023/08/01 00:36:01;;;;;;;14.68;5.70;;;16.90;99.90;;;;;;5061513;28;20119;-60
2023/08/01 00:38:27;;;;;;;7.40;4.40;;;16.90;99.90;;;;;;5053118;28;20139;-60
2023/08/01 00:40:53;;;;;;;9.55;4.00;;;16.90;99.90;;;;;;5058918;28;20124;-61
2023/08/01 00:43:19;;;;;;;10.02;4.25;;;16.90;99.90;;;;;;5061815;28;20119;-59
2023/08/01 00:45:45;;;;;;;9.35;4.63;;;16.80;99.90;;;;;;5052932;28;20130;-57
2023/08/01 00:48:11;;;;;;;7.82;4.20;;;16.80;99.90;;;;;;5053933;28;20068;-61
2023/08/01 00:50:38;;;;;;;12.52;4.18;;;16.80;99.90;;;;;;5057638;28;20045;-60
2023/08/01 00:53:05;;;;;;;8.52;3.80;;;16.80;99.90;;;;;;5038052;28;20045;-60
2023/08/01 00:55:34;;;;;;;9.85;3.33;;;16.80;99.90;;;;;;5057256;28;20044;-61
2023/08/01 00:57:59;;;;;;;7.55;3.83;;;16.70;99.90;;;;;;5060777;28;20377;-61
2023/08/01 01:00:25;;;;;;;9.77;4.47;;;16.70;99.90;;;;;;5064962;28;20499;-60
2023/08/01 01:02:53;;;;;;;10.60;4.10;;;16.70;99.90;;;;;;5059783;28;20037;-59
2023/08/01 01:05:22;;;;;;;12.30;4.65;;;16.70;99.90;;;;;;5046072;28;20115;-60
2023/08/01 01:07:48;;;;;;;8.57;4.15;;;16.70;99.90;;;;;;5061128;28;20040;-60
2023/08/01 01:10:14;;;;;;;7.93;4.40;;;16.60;99.90;;;;;;5052155;28;20045;-60
2023/08/01 01:12:39;;;;;;;9.40;4.45;;;16.60;99.90;;;;;;5053079;28;20036;-60
2023/08/01 01:15:06;;;;;;;10.43;5.28;;;16.60;99.90;;;;;;5055217;28;20514;-59
2023/08/01 01:17:31;;;;;;;8.70;4.13;;;16.60;99.90;;;;;;5052756;28;20037;-59
2023/08/01 01:19:58;;;;;;;10.68;3.67;;;16.50;99.90;;;;;;5051224;28;20032;-61
2023/08/01 01:22:25;;;;;;;9.65;4.82;;;16.50;99.90;;;;;;5058194;28;20087;-59
2023/08/01 01:24:53;;;;;;;11.90;4.38;;;16.50;99.90;;;;;;5040810;28;20082;-59
2023/08/01 01:27:19;;;;;;;10.32;3.55;;;16.50;99.90;;;;;;5061169;28;20119;-61
2023/08/01 01:29:47;;;;;;;6.82;3.45;;;16.50;99.90;;;;;;5060447;28;20041;-60
2023/08/01 01:32:13;;;;;;;14.63;4.05;;;16.40;99.90;;;;;;5055359;28;20096;-59
2023/08/01 01:34:39;;;;;;;9.13;4.03;;;16.40;99.90;;;;;;5058892;28;20388;-60
2023/08/01 01:37:05;;;;;;;8.40;3.75;;;16.40;99.90;;;;;;5033574;28;20048;-60
2023/08/01 01:39:30;;;;;;;8.38;3.30;;;16.30;99.90;;;;;;5056656;28;20045;-61
2023/08/01 01:41:56;;;;;;;11.27;4.30;;;16.30;99.90;;;;;;5028879;28;20048;-60
2023/08/01 01:44:22;;;;;;;6.82;3.45;;;16.30;99.90;;;;;;5051962;28;20036;-59
2023/08/01 01:46:49;;;;;;;6.75;3.47;;;16.30;99.90;;;;;;5050689;28;20040;-59
2023/08/01 01:49:15;;;;;;;7.25;3.63;;;16.20;99.90;;;;;;5052792;28;20041;-58
2023/08/01 01:51:40;;;;;;;10.05;3.97;;;16.20;99.90;;;;;;5056557;28;20449;-59
2023/08/01 01:54:06;;;;;;;6.50;3.53;;;16.20;99.90;;;;;;5044881;28;20048;-58
2023/08/01 01:56:35;;;;;;;10.32;3.60;;;16.20;99.90;;;;;;5041764;28;20044;-60
2023/08/01 01:59:01;;;;;;;7.75;3.60;;;16.20;99.90;;;;;;5059158;28;20032;-61
2023/08/01 02:01:27;;;;;;;9.52;5.05;;;16.20;99.90;;;;;;5059593;28;20110;-59
2023/08/01 02:03:53;;;;;;;10.38;4.30;;;16.10;99.90;;;;;;5063827;28;20072;-58
2023/08/01 02:06:19;;;;;;;7.40;3.80;;;16.10;99.90;;;;;;5034177;28;20183;-59
2023/08/01 02:08:45;;;;;;;12.15;4.05;;;16.10;99.90;;;;;;5069511;22;20040;-56
2023/08/01 02:11:11;;;;;;;6.93;3.75;;;16.10;99.90;;;;;;5046726;28;20395;-56
2023/08/01 02:13:36;;;;;;;11.05;3.85;;;16.10;99.90;;;;;;5046373;28;20028;-56
2023/08/01 02:16:02;;;;;;;12.07;3.83;;;16.10;99.90;;;;;;5049781;28;20041;-57
2023/08/01 02:18:31;;;;;;;10.02;4.30;;;16.10;99.90;;;;;;5026844;28;20049;-56
2023/08/01 02:20:56;;;;;;;8.48;4.32;;;16.10;99.90;;;;;;5032614;28;20049;-57
2023/08/01 02:23:22;;;;;;;8.48;3.83;;;16.10;99.90;;;;;;5030498;28;20290;-56
2023/08/01 02:25:48;;;;;;;7.72;4.22;;;16.20;99.90;;;;;;4998426;28;20033;-57
2023/08/01 02:28:13;;;;;;;10.98;4.35;;;16.20;99.90;;;;;;5024860;28;20068;-55
2023/08/01 02:30:39;;;;;;;11.52;4.70;;;16.20;99.90;;;;;;5042522;28;20100;-56
2023/08/01 02:33:05;;;;;;;9.48;4.32;;;16.30;99.90;;;;;;5024590;28;20070;-56
2023/08/01 02:35:31;;;;;;;12.50;4.47;;;16.30;99.90;;;;;;5026912;28;20116;-54
2023/08/01 02:37:56;;;;;;;15.38;5.40;;;16.20;99.90;;;;;;5039213;28;20108;-56
2023/08/01 02:40:22;;;;;;;11.45;4.60;;;16.20;99.90;;;;;;5040971;28;20555;-54
2023/08/01 02:42:48;;;;;;;10.80;5.47;;;16.20;99.90;;;;;;5043649;28;20135;-56
2023/08/01 02:45:13;;;;;;;9.13;4.20;;;16.20;99.90;;;;;;5023879;28;20358;-56
2023/08/01 02:47:39;;;;;;;9.43;5.45;;;16.20;99.90;;;;;;5037595;28;20045;-56
2023/08/01 02:50:06;;;;;;;10.25;5.07;;;16.10;99.90;;;;;;5031204;28;20068;-55
2023/08/01 02:52:32;;;;;;;11.57;4.70;;;16.10;99.90;;;;;;5044321;28;20032;-53
2023/08/01 02:54:57;;;;;;;10.30;4.95;;;16.10;99.90;;;;;;5043263;28;20037;-56
2023/08/01 02:57:24;;;;;;;10.63;4.93;;;15.90;99.90;;;;;;5045288;28;20069;-55
2023/08/01 02:59:49;;;;;;;10.07;4.70;;;15.90;99.90;;;;;;5040118;28;20095;-56
2023/08/01 03:02:15;;;;;;;12.13;5.28;;;15.80;99.90;;;;;;5040357;28;20037;-56
2023/08/01 03:04:41;;;;;;;11.68;5.00;;;15.80;99.90;;;;;;5060624;28;20549;-55
2023/08/01 03:07:07;;;;;;;9.43;4.82;;;15.80;99.90;;;;;;5043026;28;20068;-54
2023/08/01 03:09:32;;;;;;;8.75;4.03;;;15.80;99.90;;;;;;5044513;28;20049;-56
2023/08/01 03:11:58;;;;;;;11.18;3.30;;;15.70;99.90;;;;;;5027492;28;20291;-56
2023/08/01 03:14:24;;;;;;;10.02;3.28;;;15.70;99.90;;;;;;5044765;28;20282;-56
2023/08/01 03:16:50;;;;;;;9.80;2.80;;;15.70;99.90;;;;;;5044606;28;20048;-54
2023/08/01 03:19:15;;;;;;;10.40;3.50;;;15.70;99.90;;;;;;5037615;28;20077;-55
2023/08/01 03:21:41;;;;;;;9.43;2.53;;;15.80;99.90;;;;;;5041629;28;20033;-53
2023/08/01 03:24:08;;;;;;;8.60;2.47;;;15.80;99.90;;;;;;5047397;28;20090;-56
2023/08/01 03:26:37;;;;;;;6.45;3.00;;;15.80;99.90;;;;;;5025155;28;20049;-53
2023/08/01 03:29:03;;;;;;;8.38;2.15;;;15.80;99.90;;;;;;5021006;28;20076;-54
2023/08/01 03:31:29;;;;;;;7.47;2.03;;;15.80;99.90;;;;;;5044584;28;20178;-55
2023/08/01 03:33:55;;;;;;;11.43;3.30;;;15.80;99.90;;;;;;5027853;28;20047;-55
2023/08/01 03:36:20;;;;;;;7.32;2.58;;;15.80;99.90;;;;;;5017559;28;20048;-54
2023/08/01 03:38:46;;;;;;;10.63;2.40;;;15.80;99.90;;;;;;5030734;28;20487;-53
2023/08/01 03:41:12;;;;;;;6.65;2.22;;;15.80;99.90;;;;;;5044942;28;20056;-53
2023/08/01 03:43:38;;;;;;;8.55;2.13;;;15.80;99.90;;;;;;5032056;28;20045;-54
2023/08/01 03:46:04;;;;;;;8.18;2.25;;;15.90;99.90;;;;;;5038785;28;20055;-56
2023/08/01 03:48:30;;;;;;;9.90;2.22;;;15.80;99.90;;;;;;5038327;28;20041;-53
2023/08/01 03:50:56;;;;;;;6.35;1.90;;;15.80;99.90;;;;;;5035934;28;20507;-54
2023/08/01 03:53:22;;;;;;;9.65;2.17;;;15.80;99.90;;;;;;5022403;28;20052;-55
2023/08/01 03:55:48;;;;;;;8.02;2.00;;;15.80;99.90;;;;;;5041779;28;20045;-55
2023/08/01 03:58:14;;;;;;;8.35;2.20;;;15.80;99.90;;;;;;5022681;28;20081;-54
2023/08/01 04:00:40;;;;;;;5.35;1.48;;;15.80;99.90;;;;;;5040034;28;20080;-53
2023/08/01 04:03:06;;;;;;;3.47;1.55;;;15.80;99.90;;;;;;5038459;28;20076;-55
2023/08/01 04:05:31;;;;;;;7.20;2.00;;;15.80;99.90;;;;;;5042436;28;20040;-53
2023/08/01 04:07:59;;;;;;;7.03;2.25;;;15.80;99.90;;;;;;5041102;28;20126;-56
2023/08/01 04:10:24;;;;;;;10.20;2.00;;;15.80;99.90;;;;;;5046726;28;20055;-55
2023/08/01 04:12:50;;;;;;;6.38;2.88;;;15.80;99.90;;;;;;5029625;28;20232;-56
2023/08/01 04:15:16;;;;;;;7.15;2.00;;;15.80;99.90;;;;;;5049207;28;20041;-56
2023/08/01 04:17:42;;;;;;;7.18;2.15;;;15.80;99.90;;;;;;5044397;28;20041;-56
2023/08/01 04:20:08;;;;;;;6.15;1.88;;;15.80;99.90;;;;;;5044435;28;20043;-56
2023/08/01 04:22:33;;;;;;;8.85;2.80;;;15.80;99.90;;;;;;5046376;28;22357;-56
2023/08/01 04:25:01;;;;;;;9.70;2.60;;;15.80;99.90;;;;;;5050231;28;20041;-56
2023/08/01 04:27:27;;;;;;;9.23;2.33;;;15.90;99.90;;;;;;5047315;28;20041;-54
2023/08/01 04:29:54;;;;;;;7.05;2.42;;;15.90;99.90;;;;;;5034501;28;20546;-55
2023/08/01 04:32:19;;;;;;;7.40;2.30;;;15.90;99.90;;;;;;5046490;28;20053;-55
2023/08/01 04:34:45;;;;;;;5.00;1.80;;;15.90;99.90;;;;;;5044003;28;20045;-54
2023/08/01 04:37:11;;;;;;;6.80;2.30;;;15.90;99.90;;;;;;5019998;28;20033;-54
2023/08/01 04:39:37;;;;;;;9.00;3.25;;;15.90;99.90;;;;;;5046958;28;20041;-55
2023/08/01 04:42:03;;;;;;;6.28;2.90;;;15.90;99.90;;;;;;5040730;28;20037;-56
2023/08/01 04:44:29;;;;;;;7.85;3.17;;;15.90;99.90;;;;;;5046422;28;20500;-55
2023/08/01 04:46:55;;;;;;;6.47;3.15;;;15.90;99.90;;;;;;5045837;28;20102;-56
2023/08/01 04:49:20;;;;;;;8.20;2.72;;;15.90;99.90;;;;;;5027918;28;20472;-56
2023/08/01 04:51:48;;;;;;;7.32;3.08;;;15.90;99.90;;;;;;5041382;28;20663;-55
2023/08/01 04:54:14;;;;;;;8.57;3.05;;;15.90;99.90;;;;;;5023820;28;20046;-55
2023/08/01 04:56:40;;;;;;;5.85;2.47;;;15.90;99.90;;;;;;5044420;28;20037;-53
2023/08/01 04:59:05;;;;;;;7.97;3.35;;;15.90;99.90;;;;;;5044472;28;20442;-56
2023/08/01 05:01:31;;;;;;;7.70;2.85;;;16.00;99.90;;;;;;5028313;28;20034;-57
2023/08/01 05:03:57;;;;;;;8.23;3.35;;;15.90;99.90;;;;;;5024736;28;20431;-56
2023/08/01 05:06:23;;;;;;;8.07;3.47;;;15.90;99.90;;;;;;5022757;28;20094;-54
2023/08/01 05:08:49;;;;;;;8.75;3.47;;;16.00;99.90;;;;;;5039354;28;20037;-55
2023/08/01 05:11:15;;;;;;;9.63;3.45;;;16.00;99.90;;;;;;5045733;28;20048;-56
2023/08/01 05:13:40;;;;;;;13.63;4.00;;;16.00;99.90;;;;;;5029282;28;20032;-55
2023/08/01 05:16:06;;;;;;;9.50;3.08;;;16.00;99.90;;;;;;5041036;28;20468;-56
2023/08/01 05:18:32;;;;;;;10.07;3.55;;;16.10;99.90;;;;;;5046286;28;20520;-56
2023/08/01 05:20:57;;;;;;;13.43;4.13;;;16.10;99.90;;;;;;5040113;28;20124;-56
2023/08/01 05:23:23;;;;;;;7.68;3.40;;;16.10;99.90;;;;;;5023357;28;20133;-53
2023/08/01 05:25:49;;;;;;;9.98;3.95;;;16.10;99.90;;;;;;5012434;28;20041;-53
2023/08/01 05:28:15;;;;;;;6.72;3.50;;;16.10;99.90;;;;;;5030452;28;20487;-54
2023/08/01 05:30:41;;;;;;;7.85;2.65;;;16.20;99.90;;;;;;5026144;28;20094;-57
2023/08/01 05:33:07;;;;;;;6.80;2.60;;;16.20;99.90;;;;;;5023055;28;20071;-55
2023/08/01 05:35:32;;;;;;;7.25;2.53;;;16.20;99.90;;;;;;5043763;28;20126;-54
2023/08/01 05:37:59;;;;;;;7.50;2.53;;;16.10;99.90;;;;;;5046879;28;20044;-56
2023/08/01 05:40:25;;;;;;;7.45;2.67;;;16.10;99.90;;;;;;5028076;28;20048;-56
2023/08/01 05:42:51;;;;;;;7.85;2.30;;;16.10;99.90;;;;;;5039478;28;20280;-56
2023/08/01 05:45:16;;;;;;;7.35;1.98;;;16.10;99.90;;;;;;5022777;28;20166;-53
2023/08/01 05:47:42;;;;;;;7.35;1.88;;;16.00;99.90;;;;;;5045281;28;20493;-54
2023/08/01 05:50:08;;;;;;;8.90;2.33;;;16.00;99.90;;;;;;5021666;28;20044;-55
2023/08/01 05:52:34;;;;;;;7.78;2.90;;;15.90;99.90;;;;;;5029292;28;20037;-56
2023/08/01 05:55:00;;;;;;;7.00;1.38;;;15.80;99.90;;;;;;5062918;28;20636;-56
2023/08/01 05:57:26;;;;;;;7.80;1.50;;;15.70;99.90;;;;;;5023512;28;20041;-57
2023/08/01 05:59:52;;;;;;;4.57;1.40;;;15.70;99.90;;;;;;5039109;28;20064;-53
2023/08/01 06:02:17;;;;;;;6.47;1.45;;;15.70;99.90;;;;;;5043886;28;20044;-56
2023/08/01 06:04:43;;;;;;;7.82;1.73;;;15.70;99.90;;;;;;5028383;28;20059;-54
2023/08/01 06:07:09;;;;;;;5.20;1.27;;;15.70;99.90;;;;;;5042634;28;20128;-57
2023/08/01 06:09:35;;;;;;;3.88;1.10;;;15.80;99.90;;;;;;5046836;28;20053;-57
2023/08/01 06:12:01;;;;;;;5.85;1.30;;;15.80;99.90;;;;;;5044189;28;20055;-55
2023/08/01 06:14:27;;;;;;;3.22;1.27;;;15.90;99.90;;;;;;5043769;28;20457;-55
2023/08/01 06:16:52;;;;;;;6.63;1.80;;;16.00;99.90;;;;;;5024625;28;20032;-57
2023/08/01 06:19:18;;;;;;;7.90;2.30;;;16.10;99.90;;;;;;5039064;28;20063;-56
2023/08/01 06:21:44;;;;;;;6.82;1.55;;;16.20;99.90;;;;;;5038718;28;20530;-57
2023/08/01 06:24:10;;;;;;;5.30;1.40;;;16.30;99.90;;;;;;5023497;28;20069;-55
2023/08/01 06:26:36;;;;;;;5.88;1.45;;;16.30;99.90;;;;;;5042760;28;20150;-55
2023/08/01 06:29:02;;;;;;;9.20;1.77;;;16.40;99.90;;;;;;5024925;28;20072;-57
2023/08/01 06:31:27;;;;;;;8.15;2.25;;;16.40;99.90;;;;;;5043483;28;20348;-57
2023/08/01 06:33:53;;;;;;;9.10;1.80;;;16.40;99.90;;;;;;5013395;28;20269;-56
2023/08/01 06:36:19;;;;;;;9.77;2.30;;;16.40;99.90;;;;;;5036825;28;20059;-56
2023/08/01 06:38:44;;;;;;;9.65;1.88;;;16.40;99.90;;;;;;5035567;28;20063;-57
2023/08/01 06:41:10;;;;;;;9.75;1.98;;;16.40;99.90;;;;;;5034583;28;20052;-57
2023/08/01 06:43:38;;;;;;;11.82;2.45;;;16.40;99.90;;;;;;5038596;28;20092;-55
2023/08/01 06:46:07;;;;;;;8.05;1.70;;;16.40;99.90;;;;;;5026484;28;20036;-56
2023/08/01 06:48:35;;;;;;;7.13;1.85;;;16.30;99.90;;;;;;5038904;28;20038;-56
2023/08/01 06:51:02;;;;;;;7.97;2.08;;;16.30;99.90;;;;;;5044210;28;20033;-56
2023/08/01 06:53:28;;;;;;;9.00;1.60;;;16.30;99.90;;;;;;5028233;28;20462;-53
2023/08/01 06:55:54;;;;;;;8.32;1.77;;;16.30;99.90;;;;;;5036544;28;20124;-56
2023/08/01 06:58:19;;;;;;;9.07;1.55;;;16.30;99.90;;;;;;5036796;28;20083;-57
2023/08/01 07:00:45;;;;;;;10.98;1.85;;;16.30;99.90;;;;;;5009568;28;20542;-57
2023/08/01 07:03:11;;;;;;;8.95;1.40;;;16.30;99.90;;;;;;5043102;28;20033;-56
2023/08/01 07:05:37;;;;;;;7.85;2.05;;;16.30;99.90;;;;;;5023186;28;20036;-57
2023/08/01 07:08:03;;;;;;;6.57;1.45;;;16.30;99.90;;;;;;5022967;28;20041;-55
2023/08/01 07:10:30;;;;;;;7.35;1.52;;;16.30;99.90;;;;;;5042611;28;20037;-57
2023/08/01 07:12:56;;;;;;;6.70;2.15;;;16.30;99.90;;;;;;5023160;28;20119;-56
2023/08/01 07:15:21;;;;;;;6.43;1.70;;;16.30;99.90;;;;;;5036776;28;20119;-56
2023/08/01 07:17:47;;;;;;;5.03;1.65;;;16.30;99.90;;;;;;5038010;28;20299;-55
2023/08/01 07:20:13;;;;;;;7.97;2.13;;;16.30;99.90;;;;;;5044468;28;20040;-56
2023/08/01 07:22:39;;;;;;;8.82;1.90;;;16.40;99.90;;;;;;5022015;28;20582;-56
2023/08/01 07:25:05;;;;;;;7.18;1.60;;;16.50;99.90;;;;;;5032170;28;20044;-57
2023/08/01 07:27:30;;;;;;;7.05;2.00;;;16.50;99.90;;;;;;5036798;28;20092;-55
2023/08/01 07:29:56;;;;;;;9.98;2.00;;;16.60;99.90;;;;;;5059557;28;20056;-56
2023/08/01 07:32:25;;;;;;;11.65;2.97;;;16.60;99.90;;;;;;5042830;28;20897;-56
2023/08/01 07:34:51;;;;;;;10.05;2.08;;;16.50;99.90;;;;;;5040477;28;20131;-55
2023/08/01 07:37:16;;;;;;;11.77;2.97;;;16.40;99.90;;;;;;5042255;28;20515;-56
2023/08/01 07:39:42;;;;;;;8.70;3.05;;;16.50;99.90;;;;;;5041597;28;20148;-55
2023/08/01 07:42:08;;;;;;;10.77;2.45;;;16.40;99.90;;;;;;5042854;28;20032;-56
2023/08/01 07:44:33;;;;;;;8.20;2.35;;;16.20;99.90;;;;;;5022329;28;20487;-57
2023/08/01 07:47:02;;;;;;;9.45;2.55;;;16.20;99.90;;;;;;5039829;28;20547;-55
2023/08/01 07:49:28;;;;;;;7.32;1.90;;;16.20;99.90;;;;;;5025374;28;20124;-56
2023/08/01 07:51:57;;;;;;;11.93;1.90;;;16.10;99.90;;;;;;5042563;28;20048;-56
2023/08/01 07:54:24;;;;;;;7.93;2.10;;;16.10;99.90;;;;;;5034724;28;20048;-59
2023/08/01 07:56:50;;;;;;;7.90;1.95;;;16.10;99.90;;;;;;5018305;28;20044;-58
2023/08/01 08:00:09;;;;;;;7.82;1.95;;;16.10;99.90;;;;;;5019580;28;20400;-57
2023/08/01 08:02:34;;;;;;;7.68;1.45;;;16.10;99.90;;;;;;5035624;28;20073;-57
2023/08/01 08:05:00;;;;;;;6.63;1.65;;;16.00;99.90;;;;;;5065741;28;20071;-57
2023/08/01 08:07:26;;;;;;;9.65;1.95;;;16.10;99.90;;;;;;5067497;28;20048;-57
2023/08/01 08:09:54;;;;;;;10.80;1.80;;;16.10;99.90;;;;;;5068447;22;20421;-60
2023/08/01 08:12:21;;;;;;;9.13;1.90;;;16.10;99.90;;;;;;5081091;28;20494;-60
2023/08/01 08:14:47;;;;;;;10.18;1.88;;;16.10;99.90;;;;;;5065133;28;20108;-60
2023/08/01 08:17:13;;;;;;;7.20;2.08;;;16.20;99.90;;;;;;5084520;28;20044;-60
2023/08/01 08:19:38;;;;;;;11.35;2.17;;;16.20;99.90;;;;;;5081666;28;20260;-60
2023/08/01 08:22:04;;;;;;;8.02;1.65;;;16.20;99.90;;;;;;5084405;28;20557;-60
2023/08/01 08:24:30;;;;;;;10.25;1.98;;;16.30;99.90;;;;;;5101259;28;20071;-60
2023/08/01 08:26:56;;;;;;;8.82;2.05;;;16.30;99.90;;;;;;5081809;28;20054;-60
2023/08/01 08:29:22;;;;;;;5.85;2.13;;;16.30;99.90;;;;;;5082043;28;20074;-60
2023/08/01 08:31:47;;;;;;;7.32;1.95;;;16.40;99.90;;;;;;5072654;28;20047;-59
2023/08/01 08:34:13;;;;;;;6.70;2.13;;;16.40;99.90;;;;;;5067976;28;20036;-60
2023/08/01 08:36:39;;;;;;;6.72;1.70;;;16.40;99.90;;;;;;5079835;28;20542;-60
2023/08/01 08:39:05;;;;;;;5.60;1.50;;;16.20;99.90;;;;;;5078110;28;20044;-59
2023/08/01 08:41:38;;;;;;;12.57;2.20;;;16.20;99.90;;;;;;5081351;28;20036;-59
2023/08/01 08:44:07;;;;;;;6.55;1.63;;;16.10;99.90;;;;;;5084311;28;21213;-60
2023/08/01 08:46:37;;;;;;;7.78;2.28;;;16.20;99.90;;;;;;5084619;28;20101;-60
2023/08/01 08:49:04;;;;;;;5.93;1.63;;;16.20;99.90;;;;;;5084597;28;20140;-58
2023/08/01 08:51:35;;;;;;;4.28;1.38;;;16.20;99.90;;;;;;5086157;28;20128;-60
2023/08/01 08:54:01;;;;;;;7.60;1.88;;;16.30;99.90;;;;;;5078817;28;20319;-60
2023/08/01 08:56:30;;;;;;;8.68;1.83;;;16.50;99.90;;;;;;5087608;28;20039;-60
2023/08/01 08:58:57;;;;;;;5.07;1.63;;;16.70;99.90;;;;;;5066511;28;20055;-60
2023/08/01 09:01:23;;;;;;;6.72;1.80;;;17.10;99.90;;;;;;5087373;28;20455;-60
2023/08/01 09:03:48;;;;;;;7.47;1.83;;;17.50;99.90;;;;;;5073047;28;20059;-59
2023/08/01 09:06:15;;;;;;;13.43;2.40;;;17.60;99.90;;;;;;5106004;27;20077;-60
2023/08/01 09:08:49;;;;;;;9.70;2.13;;;17.60;99.90;;;;;;5081654;28;20044;-60
2023/08/01 09:11:17;;;;;;;6.38;1.88;;;17.50;99.90;;;;;;5085040;28;20474;-60
2023/08/01 09:13:43;;;;;;;8.40;2.15;;;17.50;99.90;;;;;;5067115;27;20039;-60
2023/08/01 09:16:14;;;;;;;4.95;1.73;;;17.50;99.90;;;;;;5090100;28;20069;-60
2023/08/01 09:18:52;;;;;;;11.60;3.72;;;17.50;99.90;;;;;;5085029;27;21987;-60
2023/08/01 09:21:22;;;;;;;10.27;3.15;;;17.60;99.90;;;;;;5077186;28;20032;-60
2023/08/01 09:23:48;;;;;;;10.30;1.95;;;17.80;99.90;;;;;;5066041;28;20032;-61
2023/08/01 09:26:14;;;;;;;5.13;1.55;;;17.80;99.90;;;;;;5090945;28;20238;-60
2023/08/01 09:28:43;;;;;;;5.47;1.30;;;17.90;99.90;;;;;;5086746;28;20044;-60
2023/08/01 09:31:11;;;;;;;6.47;2.00;;;17.90;99.90;;;;;;5084220;28;20028;-60
2023/08/01 09:33:41;;;;;;;8.07;2.28;;;17.80;99.90;;;;;;5084403;28;20051;-61
2023/08/01 09:36:10;;;;;;;7.70;2.08;;;17.80;99.90;;;;;;5093736;27;20123;-61
2023/08/01 09:38:37;;;;;;;8.25;2.28;;;17.90;99.90;;;;;;5085952;27;20043;-60
2023/08/01 09:41:04;;;;;;;7.00;2.17;;;17.90;99.90;;;;;;5105184;27;20132;-61
2023/08/01 09:43:37;;;;;;;6.95;1.85;;;18.00;99.90;;;;;;5076385;28;20043;-61
2023/08/01 09:46:06;;;;;;;7.50;2.20;;;18.00;99.90;;;;;;5104322;27;20274;-60
2023/08/01 09:48:35;;;;;;;9.57;2.60;;;18.00;99.90;;;;;;5096204;27;20039;-62
2023/08/01 09:51:18;;;;;;;6.53;2.28;;;18.20;99.90;;;;;;5081724;27;20490;-60
2023/08/01 09:53:56;;;;;;;9.40;2.90;;;18.30;99.90;;;;;;5098122;27;20035;-60
2023/08/01 09:56:26;;;;;;;6.13;2.22;;;18.30;99.90;;;;;;5083756;28;20067;-62
2023/08/01 09:58:56;;;;;;;8.52;1.88;;;18.50;99.90;;;;;;5072378;28;20071;-60
2023/08/01 10:01:26;;;;;;;9.23;2.25;;;18.50;99.90;;;;;;5081148;28;20035;-60
2023/08/01 10:03:53;;;;;;;7.57;1.98;;;18.70;99.90;;;;;;5063909;28;20078;-60
2023/08/01 10:06:23;;;;;;;9.20;1.77;;;18.80;99.90;;;;;;5070187;28;20035;-60
2023/08/01 10:08:51;;;;;;;4.60;1.20;;;18.70;99.90;;;;;;5099587;27;20046;-62
2023/08/01 10:11:22;;;;;;;4.88;1.60;;;18.80;99.90;;;;;;5068322;28;20042;-61
2023/08/01 10:13:48;;;;;;;6.15;1.50;;;18.80;99.90;;;;;;5099246;27;20111;-61
2023/08/01 10:16:15;;;;;;;7.40;1.60;;;18.70;99.90;;;;;;5084265;28;20039;-62
2023/08/01 10:18:42;;;;;;;4.55;1.98;;;18.50;99.90;;;;;;5083550;28;20046;-59
2023/08/01 10:21:11;;;;;;;5.93;1.80;;;18.60;99.90;;;;;;5084269;28;20039;-61
2023/08/01 10:23:38;;;;;;;6.88;1.77;;;18.90;99.90;;;;;;5087037;28;20067;-62
2023/08/01 10:26:06;;;;;;;5.55;2.13;;;19.00;99.90;;;;;;5086513;28;20043;-59
2023/08/01 10:28:34;;;;;;;8.45;1.83;;;19.00;99.90;;;;;;5072713;27;20204;-60
2023/08/01 10:31:08;;;;;;;11.00;2.05;;;18.90;99.90;;;;;;5082582;28;20091;-59
2023/08/01 10:33:34;;;;;;;11.45;2.53;;;18.80;99.90;;;;;;5081861;28;20040;-61
2023/08/01 10:36:00;;;;;;;5.43;1.42;;;18.70;99.90;;;;;;5082841;28;20118;-59
2023/08/01 10:38:26;;;;;;;9.73;1.92;;;18.90;99.90;;;;;;5078198;28;20518;-61
2023/08/01 10:40:51;;;;;;;7.88;2.28;;;19.00;99.90;;;;;;5085715;27;20040;-60
2023/08/01 10:43:26;;;;;;;4.22;1.20;;;19.30;99.90;;;;;;5086657;28;20032;-60
2023/08/01 10:46:04;;;;;;;6.63;1.75;;;19.60;99.90;;;;;;5086848;27;20126;-60
2023/08/01 10:48:30;;;;;;;9.93;1.60;;;19.80;99.90;;;;;;5104798;27;20090;-60
2023/08/01 10:50:57;;;;;;;5.13;1.23;;;19.90;99.90;;;;;;5066145;28;20083;-60
2023/08/01 10:53:23;;;;;;;7.80;1.75;;;19.80;99.90;;;;;;5082747;28;20097;-60
2023/08/01 10:55:49;;;;;;;7.65;1.40;;;19.60;99.90;;;;;;5083015;28;20389;-60
2023/08/01 10:58:15;;;;;;;5.88;1.58;;;19.40;99.90;;;;;;5069739;27;20043;-60
2023/08/01 11:00:44;;;;;;;5.00;1.65;;;19.40;99.90;;;;;;5085036;27;20040;-62
2023/08/01 11:03:10;;;;;;;6.63;1.58;;;19.40;99.90;;;;;;5065439;28;20024;-60
2023/08/01 11:05:36;;;;;;;5.20;1.25;;;19.50;99.90;;;;;;5083290;28;20436;-60
2023/08/01 11:08:03;;;;;;;5.95;1.15;;;19.50;99.90;;;;;;5079684;28;20035;-60
2023/08/01 11:10:31;;;;;;;4.50;1.27;;;19.60;99.90;;;;;;5084157;28;20044;-61
2023/08/01 11:12:58;;;;;;;5.07;1.27;;;19.40;99.90;;;;;;5089269;28;20102;-62
2023/08/01 11:15:24;;;;;;;4.18;1.52;;;19.10;99.90;;;;;;5098048;27;20060;-60
2023/08/01 11:17:55;;;;;;;3.63;1.27;;;19.30;99.90;;;;;;5080720;27;20067;-60
2023/08/01 11:20:22;;;;;;;5.10;1.38;;;19.30;99.90;;;;;;5083007;27;20417;-59
2023/08/01 11:23:04;;;;;;;6.55;1.52;;;19.30;99.90;;;;;;5081778;28;20436;-60
2023/08/01 11:25:43;;;;;;;5.90;2.10;;;19.30;99.90;;;;;;5085489;28;20511;-62
2023/08/01 11:28:10;;;;;;;8.30;1.85;;;19.30;99.90;;;;;;5084268;28;20054;-59
2023/08/01 11:30:36;;;;;;;8.10;2.13;;;19.40;99.90;;;;;;5085086;28;20494;-59
2023/08/01 11:33:12;;;;;;;8.05;2.08;;;19.40;99.90;;;;;;5082369;28;20032;-60
2023/08/01 11:35:39;;;;;;;7.18;2.15;;;19.30;99.90;;;;;;5086046;28;20066;-62
2023/08/01 11:38:06;;;;;;;8.43;2.75;;;19.10;99.90;;;;;;5099772;28;20043;-59
2023/08/01 11:40:32;;;;;;;7.70;2.08;;;19.10;99.90;;;;;;5087095;28;20044;-59
2023/08/01 11:42:58;;;;;;;7.90;2.08;;;18.90;99.90;;;;;;5099474;28;20520;-59
2023/08/01 11:45:25;;;;;;;6.55;1.80;;;19.00;99.90;;;;;;5076402;28;20040;-60
2023/08/01 11:47:51;;;;;;;7.78;2.03;;;19.30;99.90;;;;;;5084192;28;20410;-61
2023/08/01 11:50:25;;;;;;;10.13;1.83;;;19.50;99.90;;;;;;5078357;28;20051;-61
2023/08/01 11:52:50;;;;;;;;;;;19.50;99.90;;;;;;5069470;28;21724;-59
2023/08/01 11:55:22;;;;;;;7.18;1.85;;;19.60;99.90;;;;;;5080572;28;20401;-60
2023/08/01 11:57:56;;;;;;;8.75;1.92;;;19.90;99.90;;;;;;5064853;28;20038;-64
2023/08/01 12:00:27;;;;;;;4.53;1.13;;;20.20;99.90;;;;;;5075666;28;21219;-60
2023/08/01 12:03:07;;;;;;;8.38;1.45;;;20.10;99.90;;;;;;5082221;28;20048;-58
2023/08/01 12:05:33;;;;;;;6.55;1.65;;;20.20;99.90;;;;;;5083278;28;20047;-59
2023/08/01 12:08:15;;;;;;;6.85;1.60;;;19.90;99.90;;;;;;5067513;28;20089;-60
2023/08/01 12:10:42;;;;;;;6.43;1.98;;;20.00;99.90;;;;;;5085548;28;20043;-61
2023/08/01 12:13:22;;;;;;;4.93;1.70;;;19.70;99.90;;;;;;5078786;28;20551;-61
2023/08/01 12:15:52;;;;;;;6.90;2.28;;;19.60;99.90;;;;;;5060188;28;20069;-61
2023/08/01 12:18:22;;;;;;;5.80;1.50;;;19.40;99.90;;;;;;5066637;28;20046;-62
2023/08/01 12:20:48;;;;;;;7.85;1.73;;;19.50;99.90;;;;;;5084222;28;20132;-60
2023/08/01 12:23:14;;;;;;;5.65;2.40;;;19.70;99.90;;;;;;5084492;28;20521;-59
2023/08/01 12:25:40;;;;;;;6.28;1.63;;;19.50;99.90;;;;;;5083893;28;20084;-61
2023/08/01 12:28:05;;;;;;;6.47;1.65;;;19.40;99.90;;;;;;5087925;28;20063;-59
2023/08/01 12:30:31;;;;;;;5.95;1.80;;;19.40;99.90;;;;;;5082728;28;20503;-58
2023/08/01 12:32:57;;;;;;;6.40;1.70;;;19.50;99.90;;;;;;5087420;28;20035;-62
2023/08/01 12:35:22;;;;;;;7.25;2.03;;;19.60;99.90;;;;;;5091969;28;20051;-62
2023/08/01 12:37:48;;;;;;;6.32;1.50;;;20.00;99.90;;;;;;5087285;28;20031;-59
2023/08/01 12:40:14;;;;;;;7.90;2.03;;;20.30;99.90;;;;;;5072370;28;20035;-59
2023/08/01 12:42:39;;;;;;;10.43;2.03;;;20.20;99.90;;;;;;5086534;27;20425;-59
2023/08/01 12:45:06;;;;;;;6.38;1.60;;;19.80;99.90;;;;;;5087875;28;20381;-60